Nearby METAR Reports

 

ENCN - Kristiansand/Kje, Norway
Distance from station: Pn 17km
Aktualizacja: 05/02/2023 23:50
Bezchmurnie
Bezchmurnie
 Wiatr z WsPnWs
Wiatr: WsPnWs 6 km/h
Temperatura: -1°C
Punkt Rosy: -1°C
Wilgotność: 100%
Ciśnienie: 1039 hPa
Podsumowanie: Bezchmurnie
Visibility: greater than 10 km
2023/02/05 22:50 ENCN 052250Z 06003KT CAVOK M01/M01 Q1039
EKSN - Sindal Airport, Denmark
Distance from station: WsPdWs 145km
Aktualizacja: 30/12/2021 14:50
NOT Current
Mist, Przeważnie pochmurno
Mist, Przeważnie pochmurno
 Wiatr z PdZd
Wiatr: PdZd 26 km/h
Temperatura: 7°C
Wind Chill: 3°C
Punkt Rosy: 7°C
Wilgotność: 100%
Ciśnienie: 999 hPa
Podsumowanie: Mist
Clouds: Przeważnie pochmurno
Visibility: 5 km
Cloud details: Częściowe zachmurzenie 183 m
Przeważnie pochmurno 244 m
2021/12/30 13:50 EKSN 301350Z 23014KT 4500 BR SCT006 BKN008 07/07 Q0999
 
EKYT - Alborg, Denmark
Distance from station: PdWs 153km
Aktualizacja: 05/02/2023 23:51
Bezchmurnie
Bezchmurnie
 Wiatr z Pd
Wiatr: Pd 4 km/h
Temperatura: -1°C
Punkt Rosy: -2°C
Wilgotność: 93%
Ciśnienie: 1039 hPa
Podsumowanie: Bezchmurnie
Visibility: greater than 10 km
2023/02/05 22:51 EKYT 052251Z 18002KT CAVOK M01/M02 Q1039
ENSN - Skien/Geiterygge, Norway
Distance from station: PnWs 153km
Aktualizacja: 09/11/2015 09:50
NOT Current
Bezchmurnie
Bezchmurnie
 Wiatr z PdPdZd
Wiatr: PdPdZd 19 km/h, Poryw: 41 km/h
Temperatura: 7°C
Wind Chill: 4°C
Punkt Rosy: 3°C
Wilgotność: 76%
Ciśnienie: 1000 hPa
Podsumowanie: Bezchmurnie
Visibility: greater than 10 km
2015/11/09 08:50 ENSN 090850Z 20010G22KT 150V240 CAVOK 07/03 Q1000
 
ENZV - Stavanger/Sola(A, Norway
Distance from station: PnZd 166km
Aktualizacja: 05/02/2023 23:50
Przeważnie pochmurno
Przeważnie pochmurno
 Wiatr z Ws
Wiatr: Ws 7 km/h
Temperatura: 5°C
Wind Chill: 3°C
Punkt Rosy: 4°C
Wilgotność: 93%
Ciśnienie: 1038 hPa
Clouds: Przeważnie pochmurno
Visibility: 10 km
Cloud details: Few Clouds 213 m
Przeważnie pochmurno 4267 m
2023/02/05 22:50 ENZV 052250Z 10004KT 060V130 9999 FEW007 BKN140 05/04 Q1038
ENNO - Notodden, Norway
Distance from station: PnPnZd 182km
Aktualizacja: 05/02/2023 16:20
NOT Current
Bezchmurnie
Bezchmurnie
 Wiatr z calm
Wiatr: Cisza
Temperatura: -3°C
Punkt Rosy: -4°C
Wilgotność: 93%
Ciśnienie: 1036 hPa
Podsumowanie: Bezchmurnie
Visibility: greater than 10 km
2023/02/05 15:20 ENNO 051520Z 00000KT CAVOK M03/M04 Q1036
 
ENTO - Torp (civ/Nor-Af, Norway
Distance from station: PnWs 183km
Aktualizacja: 05/02/2023 23:50
Bezchmurnie
Bezchmurnie
 Wiatr z varies
Wiatr: varies 2 km/h
Temperatura: -1°C
Punkt Rosy: -2°C
Wilgotność: 93%
Ciśnienie: 1038 hPa
Clouds: Bezchmurnie
Visibility: 10 km
2023/02/05 22:50 ENTO 052250Z AUTO VRB01KT 9999 NCD M01/M02 Q1038
EKKA - Karup (dan-Afb), Denmark
Distance from station: PdPdWs 209km
Aktualizacja: 06/02/2023 00:13
Częściowe zachmurzenie
Częściowe zachmurzenie
 Wiatr z Zd
Wiatr: Zd 6 km/h
Temperatura: 1°C
Punkt Rosy: 1°C
Wilgotność: 100%
Ciśnienie: 1039 hPa
Clouds: Częściowe zachmurzenie
Visibility: 7 km
Cloud details: Częściowe zachmurzenie 3658 m
2023/02/05 23:13 EKKA 052313Z AUTO 27003KT 7000 SCT120/// 01/01 Q1039
 
ENHD - Haugesund/Karmoy, Norway
Distance from station: PnZd 216km
Aktualizacja: 05/02/2023 23:50
Pochmurno
Pochmurno
 Wiatr z WsPdWs
Wiatr: WsPdWs 9 km/h
Temperatura: 5°C
Wind Chill: 3°C
Punkt Rosy: 3°C
Wilgotność: 87%
Ciśnienie: 1038 hPa
Clouds: Pochmurno
Visibility: 5 km
Cloud details: Pochmurno 3353 m
2023/02/05 22:50 ENHD 052250Z AUTO 12005KT 5000 OVC110/// 05/03 Q1038
ENRY - Rygge (nor-Afb), Norway
Distance from station: PnWs 216km
Aktualizacja: 05/02/2023 23:50
Pochmurno
Pochmurno
 Wiatr z Zd
Wiatr: Zd 7 km/h
Temperatura: -4°C
Wind Chill: -7°C
Punkt Rosy: -4°C
Wilgotność: 100%
Ciśnienie: 1038 hPa
Clouds: Pochmurno
Visibility: 1 km
Cloud details: Pochmurno 0 m
2023/02/05 22:50 ENRY 052250Z AUTO 26004KT 240V300 0550NDV R12/P2000N R30/P2000N OVC000/// M04/M04 Q1038
 
ESGP - Goteborg/Save (a, Sweden
Distance from station: Ws 230km
Aktualizacja: 05/02/2023 23:50
Freezing fog, Pochmurno
Freezing fog, Pochmurno
 Wiatr z calm
Wiatr: Cisza
Temperatura: -1°C
Punkt Rosy: -1°C
Wilgotność: 100%
Ciśnienie: 1038 hPa
Podsumowanie: Freezing Fog
Clouds: Pochmurno
Visibility: 0 km
Cloud details: Pochmurno 30 m
2023/02/05 22:50 ESGP 052250Z AUTO 00000KT 0150 R01/0650N R19/0650N FZFG OVC001/// M01/M01 Q1038
EKVJ - Stauning Airport, Denmark
Distance from station: Pd 233km
Aktualizacja: 03/02/2023 13:50
NOT Current
Przeważnie pochmurno
Przeważnie pochmurno
 Wiatr z ZdPnZd
Wiatr: ZdPnZd 33 km/h
Temperatura: 7°C
Wind Chill: 3°C
Punkt Rosy: 5°C
Wilgotność: 87%
Ciśnienie: 1010 hPa
Clouds: Przeważnie pochmurno
Visibility: 7 km
Cloud details: Częściowe zachmurzenie 610 m
Przeważnie pochmurno 914 m
2023/02/03 12:50 EKVJ 031250Z 29018KT 7000 SCT020 BKN030 07/05 Q1010
 
ENSO - Stord/Soerstokke, Norway
Distance from station: PnZd 246km
Aktualizacja: 05/02/2023 19:50
NOT Current
Przeważnie pochmurno
Przeważnie pochmurno
 Wiatr z PdZd
Wiatr: PdZd 11 km/h
Temperatura: 6°C
Wind Chill: 4°C
Punkt Rosy: 6°C
Wilgotność: 100%
Ciśnienie: 1039 hPa
Clouds: Przeważnie pochmurno
Visibility: 10 km
Cloud details: Few Clouds 366 m
Częściowe zachmurzenie 549 m
Przeważnie pochmurno 2134 m
2023/02/05 18:50 ENSO 051850Z 23006KT 9999 FEW012 SCT018 BKN070 06/06 Q1039
EKAH - Tirstrup (civ/Mi, Denmark
Distance from station: PdWs 252km
Aktualizacja: 05/02/2023 23:50
Częściowe zachmurzenie
Częściowe zachmurzenie
 Wiatr z calm
Wiatr: Cisza
Temperatura: -1°C
Punkt Rosy: -2°C
Wilgotność: 93%
Ciśnienie: 1039 hPa
Clouds: Częściowe zachmurzenie
Visibility: 10 km
Cloud details: Częściowe zachmurzenie 6706 m
2023/02/05 22:50 EKAH 052250Z AUTO 00000KT 9999 SCT220/// M01/M02 Q1039
 
ESGT - Trollhattan (pvt, Sweden
Distance from station: Ws 255km
Aktualizacja: 05/02/2023 23:50
Freezing fog, Pochmurno
Freezing fog, Pochmurno
 Wiatr z ZdPdZa
Wiatr: ZdPdZa 4 km/h
Temperatura: -2°C
Punkt Rosy: -3°C
Wilgotność: 93%
Ciśnienie: 1038 hPa
Podsumowanie: Freezing Fog
Clouds: Pochmurno
Visibility: 0 km
Cloud details: Pochmurno 61 m
2023/02/05 22:50 ESGT 052250Z AUTO 25002KT 0150 R15///// R33///// FZFG VV002 M02/M03 Q1038
ESGG - Goteborg/Landvet, Sweden
Distance from station: Ws 257km
Aktualizacja: 05/02/2023 23:50
Freezing fog, Pochmurno
Freezing fog, Pochmurno
 Wiatr z Pn
Wiatr: Pn 6 km/h
Temperatura: -2°C
Punkt Rosy: -3°C
Wilgotność: 93%
Ciśnienie: 1037 hPa
Podsumowanie: Freezing Fog
Clouds: Pochmurno
Visibility: 0 km
Cloud details: Pochmurno 30 m
2023/02/05 22:50 ESGG 052250Z 36003KT 0150 R03/0750N R21/0650N FZFG VV001 M02/M03 Q1037
 
EKBI - Billund Airport, Denmark
Distance from station: PdPdWs 269km
Aktualizacja: 05/02/2023 23:50
Przeważnie pochmurno
Przeważnie pochmurno
 Wiatr z Zd
Wiatr: Zd 2 km/h
Temperatura: -2°C
Punkt Rosy: -2°C
Wilgotność: 100%
Ciśnienie: 1040 hPa
Clouds: Przeważnie pochmurno
Visibility: 10 km
Cloud details: Częściowe zachmurzenie 335 m
Przeważnie pochmurno 4877 m
2023/02/05 22:50 EKBI 052250Z AUTO 28001KT 9999 SCT011/// BKN160/// M02/M02 Q1040
EKHN - Horns Rev B Heli, Denmark
Distance from station: Pd 274km
Aktualizacja: 09/08/2016 14:20
NOT Current
Few Clouds
Few Clouds
 Wiatr z ZdPnZd
Wiatr: ZdPnZd 50 km/h, Poryw: 72 km/h
Temperatura: 14°C
Punkt Rosy: 10°C
Wilgotność: 77%
Ciśnienie: 1018 hPa
Clouds: Few Clouds
Visibility: 10 km
Cloud details: Few Clouds 1158 m
Few Clouds 2438 m
2016/08/09 12:20 EKHN 091220Z AUTO 29027G39KT 270V340 9999NDV FEW038/// FEW080/// 14/10 Q1018
 
ESIB - Satenas (swe-Afb, Sweden
Distance from station: Ws 277km
Aktualizacja: 05/02/2023 23:50
Freezing fog, Pochmurno
Freezing fog, Pochmurno
 Wiatr z PdPdZd
Wiatr: PdPdZd 6 km/h
Temperatura: -3°C
Punkt Rosy: -3°C
Wilgotność: 100%
Ciśnienie: 1038 hPa
Podsumowanie: Freezing Fog
Clouds: Pochmurno
Visibility: 0 km
Cloud details: Pochmurno 61 m
2023/02/05 22:50 ESIB 052250Z AUTO 21003KT 0200 R01/0750N R19/0600V0800D FZFG VV002 M03/M03 Q1038
EKHR - Horns Rev B Heli, Denmark
Distance from station: Pd 282km
Aktualizacja: 04/10/2016 06:20
NOT Current
Bezchmurnie
Bezchmurnie
 Wiatr z Ws
Wiatr: Ws 4 km/h
Temperatura: 11°C
Punkt Rosy: -49°C
Wilgotność: 0%
Ciśnienie: 1038 hPa
Clouds: Bezchmurnie
Visibility: 10 km
2016/10/04 04:20 EKHR 040420Z AUTO 08002KT 9999NDV NCD 11/M49 Q1038